Time;durP1;ratioP1;P1;durP2;ratioP2;P2;SDS_P1;SDS_P2;PMS_P1;PMS_P2;Temp;Humidity;BMP_temperature;BMP_pressure;BME280_temperature;BME280_humidity;BME280_pressure;Samples;Min_cycle;Max_cycle;Signal;HPM_P1;HPM_P2
2022/03/27 00:00:47;;;;;;;18.87;12.00;;;;;;;6.21;52.97;97886.06;6295253;22;20184;-86
2022/03/27 00:03:15;;;;;;;19.70;11.00;;;;;;;6.04;53.81;97873.44;6232996;22;20168;-87
2022/03/27 00:05:43;;;;;;;20.97;11.47;;;;;;;5.68;52.92;97805.41;6287372;22;20225;-86
2022/03/27 00:08:11;;;;;;;18.63;11.50;;;;;;;6.04;52.93;97845.16;6260387;22;20172;-85
2022/03/27 00:13:24;;;;;;;20.27;12.20;;;;;;;6.43;52.25;97879.69;6255193;22;20195;-85
2022/03/27 00:15:54;;;;;;;17.60;10.87;;;;;;;6.54;52.79;97862.38;6282291;22;20618;-86
2022/03/27 00:18:21;;;;;;;21.40;10.67;;;;;;;6.44;51.79;97851.38;6280162;22;20210;-85
2022/03/27 00:20:48;;;;;;;19.63;11.80;;;;;;;6.55;51.90;97877.78;6279081;22;20647;-84
2022/03/27 00:23:17;;;;;;;17.30;11.53;;;;;;;6.39;51.70;97830.03;6277700;22;20167;-86
2022/03/27 00:25:46;;;;;;;19.73;12.17;;;;;;;6.39;51.36;97858.31;6247860;22;20164;-83
2022/03/27 00:28:14;;;;;;;19.80;11.30;;;;;;;6.18;52.56;97835.50;6227592;22;20174;-85
2022/03/27 00:30:43;;;;;;;20.90;11.77;;;;;;;6.41;52.47;97854.00;6249861;22;20166;-85
2022/03/27 00:33:11;;;;;;;20.13;12.40;;;;;;;6.35;52.51;97830.94;6279481;22;20164;-85
2022/03/27 00:35:41;;;;;;;20.97;11.20;;;;;;;6.40;51.48;97826.59;6224882;22;20244;-84
2022/03/27 00:38:08;;;;;;;17.33;12.87;;;;;;;6.29;52.14;97854.19;6279910;22;20669;-86
2022/03/27 00:40:35;;;;;;;26.37;14.27;;;;;;;6.14;53.62;97849.28;6280164;22;20525;-86
2022/03/27 00:43:04;;;;;;;20.33;12.47;;;;;;;5.94;53.04;97832.47;6277849;22;20213;-86
2022/03/27 00:45:32;;;;;;;16.53;11.37;;;;;;;5.77;53.63;97806.97;6248798;22;20524;-86
2022/03/27 00:47:59;;;;;;;21.37;11.77;;;;;;;5.66;54.02;97824.28;6276060;22;20230;-86
2022/03/27 00:50:27;;;;;;;21.57;11.23;;;;;;;5.13;55.32;97842.09;6275077;22;20178;-86
2022/03/27 00:52:57;;;;;;;18.17;10.30;;;;;;;4.83;56.18;97815.91;6225703;22;20178;-86
2022/03/27 00:55:26;;;;;;;17.87;9.33;;;;;;;4.47;56.19;97798.31;6276002;22;20170;-86
2022/03/27 00:57:55;;;;;;;20.37;10.30;;;;;;;4.54;57.23;97809.38;6224947;22;20210;-86
2022/03/27 01:00:38;;;;;;;16.47;10.60;;;;;;;4.67;56.83;97821.22;6256745;22;20210;-86
2022/03/27 01:03:06;;;;;;;21.23;10.50;;;;;;;4.16;57.44;97786.66;6282935;22;20157;-86
2022/03/27 01:05:33;;;;;;;16.47;10.20;;;;;;;4.41;57.68;97824.00;6251344;22;20228;-86
2022/03/27 01:08:08;;;;;;;19.40;10.67;;;;;;;4.55;57.50;97822.19;6250412;22;20197;-85
2022/03/27 01:10:36;;;;;;;14.60;9.90;;;;;;;4.81;56.54;97822.78;6253128;22;20185;-84
2022/03/27 01:13:18;;;;;;;18.93;10.53;;;;;;;5.05;56.37;97829.34;6251731;22;20160;-86
2022/03/27 01:15:57;;;;;;;21.50;11.20;;;;;;;4.97;55.71;97816.59;6225550;22;20250;-85
2022/03/27 01:18:26;;;;;;;20.63;10.53;;;;;;;4.97;55.95;97814.91;6274509;22;20188;-85
2022/03/27 01:20:53;;;;;;;15.50;10.37;;;;;;;4.95;55.89;97800.38;6274509;22;20627;-86
2022/03/27 01:23:20;;;;;;;16.73;9.70;;;;;;;5.13;55.29;97799.28;6273619;22;20166;-85
2022/03/27 01:25:48;;;;;;;19.13;9.67;;;;;;;4.55;56.30;97757.22;6265844;22;20170;-85
2022/03/27 01:28:15;;;;;;;15.03;9.63;;;;;;;4.75;56.97;97804.03;6275176;22;20148;-85
2022/03/27 01:30:42;;;;;;;16.40;8.43;;;;;;;4.90;56.37;97799.56;6275790;22;20200;-86
2022/03/27 01:33:10;;;;;;;15.37;9.20;;;;;;;5.16;55.86;97803.53;6303096;22;20180;-86
2022/03/27 01:35:40;;;;;;;17.80;10.97;;;;;;;5.17;55.29;97803.53;6304436;22;20206;-86
2022/03/27 01:38:08;;;;;;;19.87;10.23;;;;;;;5.30;55.31;97815.34;6288043;22;20198;-85
2022/03/27 01:40:35;;;;;;;16.20;10.10;;;;;;;4.97;55.84;97776.41;6277677;22;20200;-85
2022/03/27 01:43:04;;;;;;;16.40;10.07;;;;;;;5.00;56.15;97789.19;6277694;22;20160;-86
2022/03/27 01:45:32;;;;;;;15.20;9.43;;;;;;;5.00;55.87;97784.06;6279506;22;20166;-85
2022/03/27 01:47:59;;;;;;;18.00;10.30;;;;;;;5.02;56.42;97815.69;6277637;22;20166;-86
2022/03/27 01:50:26;;;;;;;17.73;10.07;;;;;;;4.56;57.17;97792.25;6280214;22;20169;-85
2022/03/27 01:52:53;;;;;;;17.57;10.20;;;;;;;4.82;57.29;97821.88;6252877;22;20532;-86
2022/03/27 01:55:20;;;;;;;15.40;10.00;;;;;;;4.73;56.84;97790.38;6248383;22;20171;-86
2022/03/27 01:57:47;;;;;;;20.80;10.53;;;;;;;4.43;56.81;97765.88;6247801;22;20203;-86
2022/03/27 02:00:15;;;;;;;13.87;9.07;;;;;;;4.12;58.15;97785.81;6278481;22;20202;-86
2022/03/27 02:02:42;;;;;;;16.10;8.73;;;;;;;4.30;58.73;97807.91;6282953;22;20682;-86
2022/03/27 02:05:11;;;;;;;15.30;8.63;;;;;;;4.28;57.76;97772.88;6255605;22;20648;-86
2022/03/27 02:07:44;;;;;;;17.27;9.00;;;;;;;4.74;57.19;97798.03;6278653;22;20168;-85
2022/03/27 02:10:11;;;;;;;17.20;9.13;;;;;;;4.57;56.78;97758.06;6273799;22;20181;-85
2022/03/27 02:12:39;;;;;;;19.77;9.47;;;;;;;4.91;56.40;97801.28;6275212;22;20570;-84
2022/03/27 02:15:08;;;;;;;15.13;8.80;;;;;;;4.90;56.48;97814.97;6275163;22;20161;-87
2022/03/27 02:17:39;;;;;;;15.80;8.73;;;;;;;4.58;57.27;97793.09;6247462;22;20182;-88
2022/03/27 02:20:08;;;;;;;14.37;8.40;;;;;;;4.64;57.53;97800.72;6245718;22;20596;-85
2022/03/27 02:22:37;;;;;;;16.67;9.03;;;;;;;4.79;57.26;97796.28;6274927;22;20269;-86
2022/03/27 02:25:06;;;;;;;15.87;8.97;;;;;;;4.94;56.84;97803.81;6273694;22;20168;-85
2022/03/27 02:27:35;;;;;;;13.67;8.50;;;;;;;5.03;56.44;97784.88;6249612;22;20238;-85
2022/03/27 02:30:03;;;;;;;16.47;8.83;;;;;;;5.33;55.94;97822.16;6275579;22;20188;-85
2022/03/27 02:32:30;;;;;;;13.90;8.73;;;;;;;4.90;55.28;97727.72;6276907;22;20177;-85
2022/03/27 02:35:01;;;;;;;13.00;8.00;;;;;;;5.05;56.34;97790.84;6248621;22;20254;-85
2022/03/27 02:37:28;;;;;;;16.13;9.20;;;;;;;5.01;55.96;97775.50;6276821;22;20630;-86
2022/03/27 02:39:56;;;;;;;13.87;8.80;;;;;;;5.32;55.20;97794.78;6275265;22;20203;-85
2022/03/27 02:42:23;;;;;;;15.33;8.57;;;;;;;5.22;55.04;97772.66;6249298;22;20206;-87
2022/03/27 02:44:50;;;;;;;13.10;8.23;;;;;;;5.60;54.57;97820.09;6274443;22;20194;-85
2022/03/27 02:47:19;;;;;;;13.83;7.83;;;;;;;5.49;54.60;97787.69;6276105;22;20177;-85
2022/03/27 02:49:48;;;;;;;15.73;8.10;;;;;;;5.28;54.33;97758.03;6248863;22;20170;-86
2022/03/27 02:52:18;;;;;;;13.93;8.67;;;;;;;5.43;54.33;97803.19;6275903;22;20549;-85
2022/03/27 02:54:45;;;;;;;11.83;8.33;;;;;;;5.57;54.54;97821.84;6248541;22;20227;-86
2022/03/27 02:57:12;;;;;;;11.07;7.17;;;;;;;5.44;54.57;97804.91;6223526;22;20168;-84
2022/03/27 02:59:40;;;;;;;15.73;7.77;;;;;;;5.22;55.25;97821.44;6248324;22;20252;-84
2022/03/27 03:02:09;;;;;;;11.90;7.00;;;;;;;4.97;55.32;97805.47;6248782;22;20176;-85
2022/03/27 03:04:37;;;;;;;10.53;6.97;;;;;;;4.92;55.21;97804.69;6275914;22;20167;-85
2022/03/27 03:07:05;;;;;;;13.17;7.83;;;;;;;4.98;55.79;97830.28;6274755;22;20171;-86
2022/03/27 03:09:33;;;;;;;12.10;7.20;;;;;;;4.75;55.80;97820.28;6220068;22;20174;-86
2022/03/27 03:12:00;;;;;;;14.37;7.67;;;;;;;4.40;56.04;97795.84;6249109;22;20162;-86
2022/03/27 03:14:28;;;;;;;12.33;6.53;;;;;;;4.43;57.09;97829.97;6274806;22;20162;-86
2022/03/27 03:16:57;;;;;;;12.40;7.13;;;;;;;4.46;57.20;97834.25;6248874;22;20172;-86
2022/03/27 03:19:26;;;;;;;15.73;7.43;;;;;;;4.31;57.32;97790.81;6275057;22;20245;-84
2022/03/27 03:21:53;;;;;;;12.27;7.17;;;;;;;4.11;57.93;97807.22;6275800;22;20192;-84
2022/03/27 03:24:25;;;;;;;12.03;6.80;;;;;;;4.02;58.26;97819.22;6247637;22;20169;-85
2022/03/27 03:26:55;;;;;;;12.03;6.90;;;;;;;3.97;58.50;97816.72;6223088;22;20166;-85
2022/03/27 03:29:24;;;;;;;14.50;7.63;;;;;;;3.89;58.42;97827.88;6244592;22;20195;-86
2022/03/27 03:31:55;;;;;;;12.10;7.23;;;;;;;3.75;59.06;97832.25;6247504;22;20163;-87
2022/03/27 03:34:22;;;;;;;11.40;7.33;;;;;;;3.61;59.82;97800.72;6245551;22;20163;-86
2022/03/27 03:36:50;;;;;;;13.97;7.13;;;;;;;3.88;58.89;97836.41;6274821;22;20172;-87
2022/03/27 03:39:17;;;;;;;9.90;6.83;;;;;;;3.63;59.60;97832.31;6274947;22;20203;-86
2022/03/27 03:41:45;;;;;;;10.47;7.23;;;;;;;3.86;59.77;97858.63;6273039;22;20639;-85
2022/03/27 03:44:26;;;;;;;14.93;7.63;;;;;;;3.91;59.59;97841.53;6273974;22;20165;-85
2022/03/27 03:46:54;;;;;;;12.30;7.37;;;;;;;3.83;58.89;97845.84;6249588;22;20248;-84
2022/03/27 03:49:23;;;;;;;10.57;7.60;;;;;;;4.02;59.44;97849.97;6291281;22;20596;-86
2022/03/27 03:51:51;;;;;;;13.53;7.57;;;;;;;4.08;59.36;97843.09;6281941;22;20166;-85
2022/03/27 03:54:19;;;;;;;14.10;7.57;;;;;;;3.91;58.75;97795.41;6289777;22;20172;-85
2022/03/27 03:56:47;;;;;;;15.10;7.47;;;;;;;3.92;59.25;97822.72;6283934;22;20162;-86
2022/03/27 03:59:15;;;;;;;10.80;7.00;;;;;;;4.09;58.70;97808.06;6249432;22;20184;-84
2022/03/27 04:01:57;;;;;;;13.57;7.80;;;;;;;3.99;58.38;97803.88;6303492;22;20158;-84
2022/03/27 04:04:26;;;;;;;16.30;7.47;;;;;;;3.82;58.55;97782.66;6301494;22;20174;-86
2022/03/27 04:06:53;;;;;;;13.93;6.53;;;;;;;3.89;60.35;97808.25;6303964;22;20228;-86
2022/03/27 04:09:21;;;;;;;14.63;7.30;;;;;;;4.07;60.35;97822.63;6302968;22;20154;-84
2022/03/27 04:11:50;;;;;;;12.87;6.77;;;;;;;4.08;59.48;97842.28;6303878;22;20179;-85
2022/03/27 04:14:18;;;;;;;11.13;6.20;;;;;;;3.80;61.48;97866.34;6302313;22;20147;-88
2022/03/27 04:16:46;;;;;;;9.97;6.47;;;;;;;3.94;60.92;97842.34;6302904;22;20162;-86
2022/03/27 04:19:13;;;;;;;13.80;6.97;;;;;;;3.72;60.77;97829.69;6271105;22;20200;-84
2022/03/27 04:21:41;;;;;;;10.20;6.33;;;;;;;4.05;60.67;97849.97;6247044;22;20176;-85
2022/03/27 04:24:10;;;;;;;15.33;7.00;;;;;;;3.99;59.80;97843.19;6302000;22;20173;-85
2022/03/27 04:26:40;;;;;;;16.93;8.37;;;;;;;4.18;60.78;97846.47;6277450;22;20156;-86
2022/03/27 04:29:10;;;;;;;13.97;7.97;;;;;;;3.97;60.62;97821.84;6277116;22;20153;-86
2022/03/27 04:31:40;;;;;;;13.20;7.77;;;;;;;4.16;60.54;97878.09;6305055;22;20153;-86
2022/03/27 04:34:08;;;;;;;14.57;7.17;;;;;;;4.07;60.79;97849.09;6276913;22;20161;-87
2022/03/27 04:36:36;;;;;;;18.20;8.47;;;;;;;4.22;60.09;97854.97;6304446;22;20169;-86
2022/03/27 04:39:04;;;;;;;16.43;9.30;;;;;;;4.51;59.66;97866.69;6304734;22;20927;-86
2022/03/27 04:41:31;;;;;;;16.10;9.20;;;;;;;4.53;59.04;97866.66;6304067;22;20174;-87
2022/03/27 04:44:00;;;;;;;19.43;9.30;;;;;;;4.42;59.15;97892.41;6304102;22;20214;-84
2022/03/27 04:46:27;;;;;;;18.40;9.10;;;;;;;4.36;59.39;97866.81;6302606;22;20230;-86
2022/03/27 04:48:55;;;;;;;13.97;8.67;;;;;;;3.84;59.60;97817.66;6302988;22;20182;-85
2022/03/27 04:51:22;;;;;;;17.43;8.77;;;;;;;4.34;60.29;97881.34;6277542;22;20146;-85
2022/03/27 04:53:49;;;;;;;12.70;9.07;;;;;;;4.57;59.17;97869.19;6302479;22;20234;-88
2022/03/27 04:56:18;;;;;;;16.57;7.67;;;;;;;5.04;58.16;97873.00;6302897;22;20623;-86
2022/03/27 04:58:45;;;;;;;16.00;7.40;;;;;;;5.23;57.26;97877.94;6302710;22;20178;-85
2022/03/27 05:01:14;;;;;;;11.17;7.30;;;;;;;5.50;57.11;97889.59;6252638;22;20162;-86
2022/03/27 05:03:43;;;;;;;13.83;8.17;;;;;;;5.48;56.33;97901.59;6302799;22;20162;-85
2022/03/27 05:06:10;;;;;;;16.20;8.60;;;;;;;5.43;56.90;97880.25;6295935;22;20165;-85
2022/03/27 05:08:38;;;;;;;27.57;13.17;;;;;;;5.45;57.23;97886.22;6272107;22;20167;-86
2022/03/27 05:11:12;;;;;;;17.57;9.07;;;;;;;5.37;57.33;97908.56;6299104;22;20490;-84
2022/03/27 05:14:08;;;;;;;15.90;8.53;;;;;;;5.43;57.32;97904.22;6250837;22;20173;-84
2022/03/27 05:16:35;;;;;;;12.03;7.33;;;;;;;5.09;57.84;97886.66;6288118;22;20173;-86
2022/03/27 05:19:07;;;;;;;12.47;7.83;;;;;;;5.05;57.64;97870.41;6267917;22;20194;-85
2022/03/27 05:21:36;;;;;;;10.93;6.80;;;;;;;5.50;57.06;97900.69;6303855;22;20143;-86
2022/03/27 05:24:06;;;;;;;13.40;7.43;;;;;;;5.54;57.10;97886.94;6276420;22;20246;-80
2022/03/27 05:26:36;;;;;;;14.93;7.60;;;;;;;5.76;56.82;97882.38;6275438;22;20155;-84
2022/03/27 05:29:06;;;;;;;17.57;10.03;;;;;;;6.19;55.76;97913.50;6301417;22;20172;-84
2022/03/27 05:31:34;;;;;;;17.93;9.27;;;;;;;6.22;56.11;97919.44;6302239;22;20162;-87
2022/03/27 05:34:03;;;;;;;17.10;8.53;;;;;;;6.68;54.36;97916.19;6300664;22;20162;-88
2022/03/27 05:36:31;;;;;;;14.97;9.13;;;;;;;6.88;54.61;97885.81;6302156;22;20160;-85
2022/03/27 05:38:58;;;;;;;21.47;10.00;;;;;;;7.05;54.67;97912.94;6297735;22;20990;-91
2022/03/27 05:41:37;;;;;;;19.83;9.50;;;;;;;7.21;53.84;97927.22;6241498;22;20221;-86
2022/03/27 05:44:06;;;;;;;13.33;8.67;;;;;;;7.36;54.38;97895.19;6248914;22;20171;-86
2022/03/27 05:46:37;;;;;;;15.10;8.83;;;;;;;7.86;53.27;97927.69;6285797;22;20165;-85
2022/03/27 05:49:08;;;;;;;14.27;8.70;;;;;;;7.88;52.21;97923.34;6282233;22;20186;-86
2022/03/27 05:51:38;;;;;;;17.47;9.20;;;;;;;7.96;51.73;97896.50;6273133;22;20172;-84
2022/03/27 05:54:06;;;;;;;16.13;9.47;;;;;;;8.34;51.58;97907.75;6299009;22;20172;-90
2022/03/27 05:56:34;;;;;;;16.60;9.50;;;;;;;8.53;51.27;97904.69;6274439;22;20169;-86
2022/03/27 05:59:03;;;;;;;17.57;9.83;;;;;;;8.84;50.66;97928.88;6274500;22;20196;-91
2022/03/27 06:01:34;;;;;;;16.57;10.40;;;;;;;9.05;50.67;97927.47;6274958;22;20179;-84
2022/03/27 06:04:09;;;;;;;19.67;11.63;;;;;;;9.23;50.27;97932.19;6275127;22;20160;-88
2022/03/27 06:06:37;;;;;;;23.97;12.90;;;;;;;9.34;49.02;97888.81;6273729;22;20165;-85
2022/03/27 06:09:04;;;;;;;23.17;12.30;;;;;;;9.77;48.68;97929.81;6300189;22;20157;-85
2022/03/27 06:11:35;;;;;;;24.10;14.07;;;;;;;9.77;48.62;97928.09;6298086;22;20225;-90
2022/03/27 06:14:03;;;;;;;25.77;14.07;;;;;;;9.92;48.02;97923.38;6298199;22;20169;-87
2022/03/27 06:16:32;;;;;;;26.47;13.83;;;;;;;10.04;47.19;97897.97;6297470;22;20172;-87
2022/03/27 06:19:00;;;;;;;24.60;12.60;;;;;;;10.16;46.92;97876.09;6299210;22;20161;-84
2022/03/27 06:21:27;;;;;;;17.30;11.83;;;;;;;10.61;46.34;97916.09;6270115;22;20170;-86
2022/03/27 06:23:54;;;;;;;20.83;12.20;;;;;;;10.78;45.58;97912.97;6264900;22;20188;-86
2022/03/27 06:26:21;;;;;;;20.50;13.53;;;;;;;10.94;45.68;97901.19;6299206;22;20144;-85
2022/03/27 06:28:52;;;;;;;20.70;12.03;;;;;;;11.17;45.18;97911.63;6273005;22;20213;-86
2022/03/27 06:32:06;;;;;;;20.50;13.13;;;;;;;11.58;44.10;97917.97;6262073;22;20200;-87
2022/03/27 06:34:48;;;;;;;18.00;10.87;;;;;;;11.65;43.15;97896.06;6249630;22;20161;-84
2022/03/27 06:37:16;;;;;;;19.33;12.07;;;;;;;11.60;43.29;97852.16;6249309;22;20177;-87
2022/03/27 06:39:47;;;;;;;17.13;10.83;;;;;;;12.21;41.88;97889.66;6252384;22;20447;-87
2022/03/27 06:42:15;;;;;;;15.93;10.33;;;;;;;12.44;40.68;97899.16;6275033;22;20251;-85
2022/03/27 06:44:42;;;;;;;18.63;10.17;;;;;;;12.86;39.67;97924.25;6303495;22;20156;-89
2022/03/27 06:47:09;;;;;;;24.83;9.87;;;;;;;12.31;40.06;97823.44;6302231;22;20159;-86
2022/03/27 06:49:37;;;;;;;28.50;14.03;;;;;;;12.52;39.86;97840.78;6274107;22;20174;-87
2022/03/27 06:52:06;;;;;;;18.43;11.27;;;;;;;13.27;39.88;97921.75;6249145;22;20165;-87
2022/03/27 06:54:39;;;;;;;22.97;9.80;;;;;;;13.31;38.88;97925.91;6240739;22;20568;-95
2022/03/27 06:57:14;;;;;;;35.97;13.87;;;;;;;13.52;39.30;97924.97;6295286;22;20176;-92
2022/03/27 07:05:39;;;;;;;17.63;8.40;;;;;;;14.01;39.13;97921.91;6288982;22;20168;-89
2022/03/27 07:08:12;;;;;;;15.87;8.57;;;;;;;13.69;38.34;97886.03;6290897;22;20171;-94
2022/03/27 07:10:41;;;;;;;17.33;8.60;;;;;;;14.06;37.99;97914.72;6291262;22;20224;-96
2022/03/27 07:13:12;;;;;;;17.70;8.50;;;;;;;14.17;38.05;97922.88;6259505;22;20602;-90
2022/03/27 07:15:42;;;;;;;16.03;8.63;;;;;;;14.10;38.08;97895.41;6268323;22;20183;-85
2022/03/27 07:18:11;;;;;;;13.33;7.77;;;;;;;13.93;38.18;97843.25;6261846;22;20164;-87
2022/03/27 07:20:44;;;;;;;14.57;8.63;;;;;;;14.40;38.23;97896.66;6295536;22;20192;-88
2022/03/27 07:23:18;;;;;;;12.17;8.10;;;;;;;14.64;37.34;97918.94;6287467;22;20502;-90
2022/03/27 07:25:48;;;;;;;11.10;7.07;;;;;;;14.74;37.77;97913.25;6282966;22;20581;-90
2022/03/27 07:28:16;;;;;;;12.07;7.13;;;;;;;14.87;37.12;97919.56;6248121;22;20252;-93
2022/03/27 07:30:45;;;;;;;12.33;7.47;;;;;;;15.05;36.24;97918.66;6278764;22;20164;-92
2022/03/27 07:33:16;;;;;;;12.33;7.20;;;;;;;15.13;36.31;97911.31;6249800;22;20503;-90
2022/03/27 07:35:43;;;;;;;11.47;6.20;;;;;;;15.19;36.24;97884.91;6275898;22;20156;-89
2022/03/27 07:38:10;;;;;;;14.43;6.67;;;;;;;15.50;35.71;97919.00;6249551;22;20175;-87
2022/03/27 07:40:38;;;;;;;15.10;7.67;;;;;;;15.57;35.20;97882.97;6273501;22;20227;-85
2022/03/27 07:43:09;;;;;;;13.70;6.50;;;;;;;15.79;33.45;97901.81;6276131;22;20156;-86
2022/03/27 07:45:41;;;;;;;14.13;6.33;;;;;;;15.70;31.33;97860.53;6276259;22;20164;-85
2022/03/27 07:48:09;;;;;;;16.43;6.23;;;;;;;15.95;30.70;97898.31;6248965;22;20164;-85
2022/03/27 07:50:40;;;;;;;10.87;5.83;;;;;;;15.96;29.85;97900.00;6275400;22;20188;-88
2022/03/27 07:53:10;;;;;;;11.50;5.90;;;;;;;15.86;30.63;97885.75;6274639;22;20244;-86
2022/03/27 07:55:43;;;;;;;8.97;5.87;;;;;;;15.78;29.61;97840.91;6246507;22;20168;-94
2022/03/27 07:58:16;;;;;;;11.33;5.77;;;;;;;16.01;29.87;97856.16;6279467;22;20175;-88
2022/03/27 08:00:49;;;;;;;9.80;6.10;;;;;;;16.26;29.10;97882.66;6277222;22;20196;-91
2022/03/27 08:03:19;;;;;;;10.87;6.90;;;;;;;16.27;28.73;97876.53;6281064;22;20167;-94
2022/03/27 08:05:50;;;;;;;11.27;6.90;;;;;;;16.44;28.68;97898.28;6256081;22;20196;-90
2022/03/27 08:08:20;;;;;;;21.03;8.07;;;;;;;16.37;27.53;97860.31;6285991;22;20177;-90
2022/03/27 08:11:09;;;;;;;16.63;8.47;;;;;;;16.54;26.43;97881.16;6248513;22;20169;-91
2022/03/27 08:13:37;;;;;;;16.17;8.33;;;;;;;16.55;26.02;97875.84;6288220;22;20189;-89
2022/03/27 08:16:06;;;;;;;15.77;9.07;;;;;;;16.66;25.61;97880.47;6271875;22;20219;-85
2022/03/27 08:18:43;;;;;;;18.17;9.10;;;;;;;16.75;24.82;97877.34;6301377;22;20169;-85
2022/03/27 08:21:11;;;;;;;13.17;7.87;;;;;;;16.58;25.38;97836.47;6248189;22;20202;-90
2022/03/27 08:23:41;;;;;;;12.67;7.97;;;;;;;16.63;25.54;97852.72;6294454;22;20154;-89
2022/03/27 08:28:55;;;;;;;16.97;9.60;;;;;;;16.77;25.22;97862.41;6292300;22;20150;-88
2022/03/27 08:31:36;;;;;;;13.07;8.53;;;;;;;16.92;25.25;97869.34;6265941;22;20740;-88
2022/03/27 08:34:06;;;;;;;16.33;9.47;;;;;;;17.21;24.88;97899.91;6290122;22;20163;-85
2022/03/27 08:36:35;;;;;;;18.50;9.57;;;;;;;17.22;24.33;97901.63;6264367;22;20167;-87
2022/03/27 08:39:03;;;;;;;18.93;8.27;;;;;;;17.10;23.94;97903.16;6267726;22;20295;-86
2022/03/27 08:41:36;;;;;;;15.37;8.87;;;;;;;17.13;24.30;97899.53;6242432;22;20216;-87
2022/03/27 08:44:12;;;;;;;22.37;8.83;;;;;;;17.31;24.66;97900.25;6274592;22;20178;-86
2022/03/27 08:46:45;;;;;;;12.13;7.87;;;;;;;17.41;23.97;97888.28;6274020;22;20174;-85
2022/03/27 08:49:52;;;;;;;16.30;7.77;;;;;;;17.39;23.98;97898.84;6271781;22;20174;-87
2022/03/27 08:52:21;;;;;;;10.97;7.57;;;;;;;17.34;24.75;97890.41;6301468;22;20146;-87
2022/03/27 08:54:59;;;;;;;14.87;7.27;;;;;;;17.03;24.87;97862.59;6298380;22;20513;-87
2022/03/27 08:57:54;;;;;;;13.27;9.40;;;;;;;17.17;25.57;97874.84;6296495;22;20166;-86
2022/03/27 09:00:31;;;;;;;19.10;8.57;;;;;;;17.16;24.80;97844.38;6296256;22;20224;-85
2022/03/27 09:03:00;;;;;;;12.80;7.90;;;;;;;17.23;24.71;97837.84;6270710;22;20181;-88
2022/03/27 09:05:28;;;;;;;11.40;7.03;;;;;;;17.55;24.43;97868.22;6297045;22;20166;-86
2022/03/27 09:07:57;;;;;;;11.93;7.27;;;;;;;17.55;24.16;97852.50;6267488;22;20174;-85
2022/03/27 09:10:27;;;;;;;13.40;7.73;;;;;;;17.76;23.44;97861.66;6242401;22;20262;-86
2022/03/27 09:12:57;;;;;;;12.17;7.77;;;;;;;17.70;23.69;97877.75;6287931;22;20161;-85
2022/03/27 09:15:24;;;;;;;14.00;7.80;;;;;;;17.71;23.66;97862.88;6257923;22;20171;-85
2022/03/27 09:18:02;;;;;;;15.83;7.90;;;;;;;17.83;23.25;97868.22;6276132;22;20193;-86
2022/03/27 09:20:43;;;;;;;13.00;7.83;;;;;;;17.94;22.94;97880.66;6283369;22;20277;-86
2022/03/27 09:23:17;;;;;;;12.20;7.27;;;;;;;17.82;22.80;97844.75;6246908;22;20171;-85
2022/03/27 09:26:01;;;;;;;12.27;7.50;;;;;;;18.05;22.62;97872.16;6272200;22;20166;-85
2022/03/27 09:28:30;;;;;;;11.60;7.37;;;;;;;17.94;23.07;97872.81;6221362;22;20174;-85
2022/03/27 09:31:04;;;;;;;14.10;7.47;;;;;;;17.85;23.56;97855.00;6248161;22;20160;-86
2022/03/27 09:33:46;;;;;;;11.67;7.63;;;;;;;17.96;23.12;97867.47;6228241;22;20271;-86
2022/03/27 09:36:23;;;;;;;10.23;6.83;;;;;;;18.01;23.59;97875.91;6283086;22;20171;-86
2022/03/27 09:39:10;;;;;;;13.63;7.70;;;;;;;18.10;23.64;97862.19;6288237;22;20162;-86
2022/03/27 09:41:37;;;;;;;10.97;7.10;;;;;;;18.13;23.72;97865.50;6299978;22;20209;-86
2022/03/27 09:44:20;;;;;;;12.97;7.53;;;;;;;18.25;23.38;97863.88;6273314;22;20238;-85
2022/03/27 09:47:04;;;;;;;16.50;7.77;;;;;;;18.48;23.18;97871.16;6301700;22;20199;-86
2022/03/27 09:49:32;;;;;;;14.70;7.63;;;;;;;18.42;22.73;97851.34;6295866;22;20252;-86
2022/03/27 09:52:08;;;;;;;16.10;8.03;;;;;;;18.46;23.10;97857.28;6298610;22;20164;-86
2022/03/27 09:54:59;;;;;;;14.33;7.67;;;;;;;18.40;22.97;97855.03;6296701;22;20619;-86
2022/03/27 09:57:32;;;;;;;14.97;8.43;;;;;;;18.41;22.88;97854.06;6274234;22;20171;-85
2022/03/27 10:00:20;;;;;;;13.43;7.97;;;;;;;18.40;22.62;97847.97;6299384;22;20207;-87
2022/03/27 10:02:49;;;;;;;14.10;8.00;;;;;;;18.21;23.06;97809.94;6301160;22;20228;-87
2022/03/27 10:05:21;;;;;;;13.13;8.00;;;;;;;18.61;22.87;97836.13;6289956;22;20164;-86
2022/03/27 10:07:52;;;;;;;18.43;8.60;;;;;;;18.73;22.93;97845.00;6273120;22;20248;-85
2022/03/27 10:10:27;;;;;;;13.67;8.30;;;;;;;18.76;22.83;97817.69;6301831;22;20163;-85
2022/03/27 10:12:57;;;;;;;14.80;8.23;;;;;;;19.09;22.48;97844.34;6301800;22;20164;-85
2022/03/27 10:15:29;;;;;;;14.00;8.10;;;;;;;18.95;21.36;97808.53;6296285;22;20638;-86
2022/03/27 10:18:20;;;;;;;15.40;8.60;;;;;;;19.22;21.94;97842.59;6268610;22;20183;-86
2022/03/27 10:21:02;;;;;;;15.30;8.53;;;;;;;18.55;22.06;97759.63;6273662;22;20582;-87
2022/03/27 10:23:31;;;;;;;16.50;8.73;;;;;;;19.08;22.42;97835.63;6303294;22;20179;-85
2022/03/27 10:26:05;;;;;;;17.10;9.07;;;;;;;19.08;22.41;97833.00;6238341;22;20168;-86
2022/03/27 10:28:37;;;;;;;13.40;8.37;;;;;;;19.06;22.49;97821.75;6247070;22;20180;-86
2022/03/27 10:31:08;;;;;;;12.00;7.67;;;;;;;19.01;22.30;97792.34;6250777;22;20176;-86
2022/03/27 10:33:44;;;;;;;17.03;8.70;;;;;;;18.79;22.06;97812.25;6281430;22;20164;-85
2022/03/27 10:36:42;;;;;;;15.07;8.20;;;;;;;18.49;22.57;97787.09;6284922;22;20282;-93
2022/03/27 10:39:51;;;;;;;17.97;8.87;;;;;;;18.90;22.74;97830.78;6293668;22;20224;-93
2022/03/27 10:43:00;;;;;;;14.10;8.33;;;;;;;19.25;22.70;97832.72;6255482;22;20261;-93
2022/03/27 10:45:30;;;;;;;15.60;9.03;;;;;;;18.96;23.19;97776.06;6250055;22;20376;-86
2022/03/27 10:48:20;;;;;;;15.50;8.90;;;;;;;19.35;22.43;97825.91;6267796;22;20165;-87
2022/03/27 10:50:54;;;;;;;15.63;8.87;;;;;;;19.63;22.55;97831.91;6265389;22;20172;-95
2022/03/27 10:53:25;;;;;;;14.70;9.23;;;;;;;19.37;22.39;97836.34;6282279;22;20168;-85
2022/03/27 10:55:54;;;;;;;16.07;8.40;;;;;;;19.26;22.75;97810.75;6240643;22;20230;-91
2022/03/27 10:58:37;;;;;;;15.60;9.30;;;;;;;19.31;22.74;97800.75;6277941;22;20650;-84
2022/03/27 11:01:09;;;;;;;16.90;9.53;;;;;;;19.16;22.65;97807.09;6280081;22;20256;-86
2022/03/27 11:04:09;;;;;;;14.47;9.00;;;;;;;19.13;22.00;97777.53;6251376;22;20170;-87
2022/03/27 11:06:49;;;;;;;14.30;8.37;;;;;;;19.27;22.05;97832.59;6247993;22;20234;-85
2022/03/27 11:09:34;;;;;;;13.27;8.60;;;;;;;19.40;22.75;97817.72;6276529;22;20164;-85
2022/03/27 11:12:31;;;;;;;13.80;7.93;;;;;;;19.61;21.92;97818.03;6274391;22;20164;-86
2022/03/27 11:15:05;;;;;;;16.00;8.60;;;;;;;19.71;21.64;97809.41;6224245;22;20175;-84
2022/03/27 11:17:34;;;;;;;13.00;8.37;;;;;;;19.71;21.44;97813.81;6223472;22;20222;-85
2022/03/27 11:20:23;;;;;;;12.80;8.57;;;;;;;19.49;21.36;97775.88;6250467;22;20191;-86
2022/03/27 11:22:55;;;;;;;13.57;8.47;;;;;;;19.47;21.70;97764.63;6225129;22;20172;-86
2022/03/27 11:25:28;;;;;;;12.87;8.30;;;;;;;19.58;21.45;97816.44;6248987;22;20171;-87
2022/03/27 11:28:07;;;;;;;13.37;8.00;;;;;;;19.50;21.57;97797.75;6272412;22;20160;-85
2022/03/27 11:30:55;;;;;;;16.73;8.87;;;;;;;19.50;21.34;97816.13;6271881;22;20161;-84
2022/03/27 11:33:26;;;;;;;13.50;8.13;;;;;;;19.53;21.00;97801.94;6272240;22;20251;-85
2022/03/27 11:36:09;;;;;;;16.50;8.67;;;;;;;19.47;21.42;97806.69;6249194;22;20172;-84
2022/03/27 11:39:02;;;;;;;15.93;8.43;;;;;;;19.54;20.75;97801.03;6289722;22;20168;-87
2022/03/27 11:41:48;;;;;;;13.43;8.10;;;;;;;19.58;20.96;97787.53;6266378;22;20191;-91
2022/03/27 11:47:44;;;;;;;13.73;9.27;;;;;;;19.38;22.35;97759.19;6270771;22;20168;-85
2022/03/27 11:50:32;;;;;;;16.40;9.70;;;;;;;19.80;22.53;97792.16;6273126;22;20523;-86
2022/03/27 11:53:05;;;;;;;15.33;8.93;;;;;;;19.57;21.87;97774.50;6267898;22;20212;-87
2022/03/27 11:55:37;;;;;;;21.03;10.60;;;;;;;19.48;22.18;97760.22;6298765;22;20158;-88
2022/03/27 11:58:07;;;;;;;15.30;9.30;;;;;;;19.53;22.19;97752.03;6300448;22;20141;-86
2022/03/27 12:00:46;;;;;;;14.47;9.63;;;;;;;19.63;22.06;97769.69;6301584;22;20251;-85
2022/03/27 12:03:20;;;;;;;18.00;9.13;;;;;;;19.72;21.70;97758.50;6300871;22;20168;-85